sensor_id;sensor_type;location;lat;lon;timestamp;temperature;humidity
28837;DHT22;50669;50.982;11.022;2022-10-17T00:00:34;13.70;99.90
28837;DHT22;50669;50.982;11.022;2022-10-17T00:03:02;13.70;99.90
28837;DHT22;50669;50.982;11.022;2022-10-17T00:05:28;13.70;99.90
28837;DHT22;50669;50.982;11.022;2022-10-17T00:07:56;13.60;99.90
28837;DHT22;50669;50.982;11.022;2022-10-17T00:10:21;13.60;99.90
28837;DHT22;50669;50.982;11.022;2022-10-17T00:12:47;13.60;99.90
28837;DHT22;50669;50.982;11.022;2022-10-17T00:15:19;13.60;99.90
28837;DHT22;50669;50.982;11.022;2022-10-17T00:17:45;13.50;99.90
28837;DHT22;50669;50.982;11.022;2022-10-17T00:20:11;13.50;99.90
28837;DHT22;50669;50.982;11.022;2022-10-17T00:22:37;13.50;99.90
28837;DHT22;50669;50.982;11.022;2022-10-17T00:25:03;13.50;99.90
28837;DHT22;50669;50.982;11.022;2022-10-17T00:27:34;13.50;99.90
28837;DHT22;50669;50.982;11.022;2022-10-17T00:30:00;13.50;99.90
28837;DHT22;50669;50.982;11.022;2022-10-17T00:32:26;13.50;99.90
28837;DHT22;50669;50.982;11.022;2022-10-17T00:34:51;13.40;99.90
28837;DHT22;50669;50.982;11.022;2022-10-17T00:37:19;13.40;99.90
28837;DHT22;50669;50.982;11.022;2022-10-17T00:39:45;13.40;99.90
28837;DHT22;50669;50.982;11.022;2022-10-17T00:42:14;13.40;99.90
28837;DHT22;50669;50.982;11.022;2022-10-17T00:47:15;13.30;99.90
28837;DHT22;50669;50.982;11.022;2022-10-17T00:49:41;13.30;99.90
28837;DHT22;50669;50.982;11.022;2022-10-17T00:52:10;13.30;99.90
28837;DHT22;50669;50.982;11.022;2022-10-17T00:54:42;13.30;99.90
28837;DHT22;50669;50.982;11.022;2022-10-17T00:57:11;13.30;99.90
28837;DHT22;50669;50.982;11.022;2022-10-17T00:59:39;13.30;99.90
28837;DHT22;50669;50.982;11.022;2022-10-17T01:04:35;13.30;99.90
28837;DHT22;50669;50.982;11.022;2022-10-17T01:07:01;13.20;99.90
28837;DHT22;50669;50.982;11.022;2022-10-17T01:09:29;13.20;99.90
28837;DHT22;50669;50.982;11.022;2022-10-17T01:12:06;13.20;99.90
28837;DHT22;50669;50.982;11.022;2022-10-17T01:18:00;13.20;99.90
28837;DHT22;50669;50.982;11.022;2022-10-17T01:29:19;13.20;99.90
28837;DHT22;50669;50.982;11.022;2022-10-17T01:32:01;13.20;99.90
28837;DHT22;50669;50.982;11.022;2022-10-17T01:34:51;13.10;99.90
28837;DHT22;50669;50.982;11.022;2022-10-17T01:37:50;13.10;99.90
28837;DHT22;50669;50.982;11.022;2022-10-17T01:40:27;13.10;99.90
28837;DHT22;50669;50.982;11.022;2022-10-17T01:43:12;13.10;99.90
28837;DHT22;50669;50.982;11.022;2022-10-17T01:45:49;13.10;99.90
28837;DHT22;50669;50.982;11.022;2022-10-17T01:48:24;13.00;99.90
28837;DHT22;50669;50.982;11.022;2022-10-17T01:50:52;13.10;99.90
28837;DHT22;50669;50.982;11.022;2022-10-17T01:53:25;13.00;99.90
28837;DHT22;50669;50.982;11.022;2022-10-17T01:55:53;13.00;99.90
28837;DHT22;50669;50.982;11.022;2022-10-17T01:58:45;13.00;99.90
28837;DHT22;50669;50.982;11.022;2022-10-17T02:01:12;13.00;99.90
28837;DHT22;50669;50.982;11.022;2022-10-17T02:03:42;13.00;99.90
28837;DHT22;50669;50.982;11.022;2022-10-17T02:06:09;13.00;99.90
28837;DHT22;50669;50.982;11.022;2022-10-17T02:08:46;13.00;99.90
28837;DHT22;50669;50.982;11.022;2022-10-17T02:11:22;13.00;99.90
28837;DHT22;50669;50.982;11.022;2022-10-17T02:14:40;13.00;99.90
28837;DHT22;50669;50.982;11.022;2022-10-17T02:22:26;13.00;99.90
28837;DHT22;50669;50.982;11.022;2022-10-17T02:25:09;13.00;99.90
28837;DHT22;50669;50.982;11.022;2022-10-17T02:27:47;13.00;99.90
28837;DHT22;50669;50.982;11.022;2022-10-17T02:30:30;12.90;99.90
28837;DHT22;50669;50.982;11.022;2022-10-17T02:33:09;13.00;99.90
28837;DHT22;50669;50.982;11.022;2022-10-17T02:35:40;13.00;99.90
28837;DHT22;50669;50.982;11.022;2022-10-17T02:38:08;12.90;99.90
28837;DHT22;50669;50.982;11.022;2022-10-17T02:40:36;12.90;99.90
28837;DHT22;50669;50.982;11.022;2022-10-17T02:43:04;12.90;99.90
28837;DHT22;50669;50.982;11.022;2022-10-17T02:45:30;12.90;99.90
28837;DHT22;50669;50.982;11.022;2022-10-17T02:53:22;12.90;99.90
28837;DHT22;50669;50.982;11.022;2022-10-17T02:55:58;12.90;99.90
28837;DHT22;50669;50.982;11.022;2022-10-17T02:58:30;12.90;99.90
28837;DHT22;50669;50.982;11.022;2022-10-17T03:00:59;12.90;99.90
28837;DHT22;50669;50.982;11.022;2022-10-17T03:03:29;12.90;99.90
28837;DHT22;50669;50.982;11.022;2022-10-17T03:05:55;12.90;99.90
28837;DHT22;50669;50.982;11.022;2022-10-17T03:08:24;12.80;99.90
28837;DHT22;50669;50.982;11.022;2022-10-17T03:10:50;12.80;99.90
28837;DHT22;50669;50.982;11.022;2022-10-17T03:13:16;12.80;99.90
28837;DHT22;50669;50.982;11.022;2022-10-17T03:15:42;12.80;99.90
28837;DHT22;50669;50.982;11.022;2022-10-17T03:18:10;12.80;99.90
28837;DHT22;50669;50.982;11.022;2022-10-17T03:20:35;12.80;99.90
28837;DHT22;50669;50.982;11.022;2022-10-17T03:23:03;12.80;99.90
28837;DHT22;50669;50.982;11.022;2022-10-17T03:25:29;12.70;99.90
28837;DHT22;50669;50.982;11.022;2022-10-17T03:27:57;12.70;99.90
28837;DHT22;50669;50.982;11.022;2022-10-17T03:30:24;12.80;99.90
28837;DHT22;50669;50.982;11.022;2022-10-17T03:32:50;12.70;99.90
28837;DHT22;50669;50.982;11.022;2022-10-17T03:35:15;12.70;99.90
28837;DHT22;50669;50.982;11.022;2022-10-17T03:37:41;12.70;99.90
28837;DHT22;50669;50.982;11.022;2022-10-17T03:40:09;12.70;99.90
28837;DHT22;50669;50.982;11.022;2022-10-17T03:42:37;12.70;99.90
28837;DHT22;50669;50.982;11.022;2022-10-17T03:45:05;12.70;99.90
28837;DHT22;50669;50.982;11.022;2022-10-17T03:47:31;12.80;99.90
28837;DHT22;50669;50.982;11.022;2022-10-17T03:49:59;12.70;99.90
28837;DHT22;50669;50.982;11.022;2022-10-17T03:52:24;12.70;99.90
28837;DHT22;50669;50.982;11.022;2022-10-17T03:54:52;12.70;99.90
28837;DHT22;50669;50.982;11.022;2022-10-17T03:57:20;12.70;99.90
28837;DHT22;50669;50.982;11.022;2022-10-17T03:59:46;12.70;99.90
28837;DHT22;50669;50.982;11.022;2022-10-17T04:02:11;12.60;99.90
28837;DHT22;50669;50.982;11.022;2022-10-17T04:04:37;12.60;99.90
28837;DHT22;50669;50.982;11.022;2022-10-17T04:07:05;12.60;99.90
28837;DHT22;50669;50.982;11.022;2022-10-17T04:09:30;12.60;99.90
28837;DHT22;50669;50.982;11.022;2022-10-17T04:11:56;12.60;99.90
28837;DHT22;50669;50.982;11.022;2022-10-17T04:14:22;12.60;99.90
28837;DHT22;50669;50.982;11.022;2022-10-17T04:16:49;12.70;99.90
28837;DHT22;50669;50.982;11.022;2022-10-17T04:19:15;12.60;99.90
28837;DHT22;50669;50.982;11.022;2022-10-17T04:21:41;12.60;99.90
28837;DHT22;50669;50.982;11.022;2022-10-17T04:24:09;12.60;99.90
28837;DHT22;50669;50.982;11.022;2022-10-17T04:26:38;12.60;99.90
28837;DHT22;50669;50.982;11.022;2022-10-17T04:29:04;12.60;99.90
28837;DHT22;50669;50.982;11.022;2022-10-17T04:31:29;12.60;99.90
28837;DHT22;50669;50.982;11.022;2022-10-17T04:33:55;12.60;99.90
28837;DHT22;50669;50.982;11.022;2022-10-17T04:36:23;12.60;99.90
28837;DHT22;50669;50.982;11.022;2022-10-17T04:38:49;12.60;99.90
28837;DHT22;50669;50.982;11.022;2022-10-17T04:41:16;12.60;99.90
28837;DHT22;50669;50.982;11.022;2022-10-17T04:43:42;12.60;99.90
28837;DHT22;50669;50.982;11.022;2022-10-17T04:46:10;12.60;99.90
28837;DHT22;50669;50.982;11.022;2022-10-17T04:48:37;12.60;99.90
28837;DHT22;50669;50.982;11.022;2022-10-17T04:51:08;12.60;99.90
28837;DHT22;50669;50.982;11.022;2022-10-17T04:53:36;12.60;99.90
28837;DHT22;50669;50.982;11.022;2022-10-17T04:56:15;12.60;99.90
28837;DHT22;50669;50.982;11.022;2022-10-17T04:58:42;12.60;99.90
28837;DHT22;50669;50.982;11.022;2022-10-17T05:01:13;12.60;99.90
28837;DHT22;50669;50.982;11.022;2022-10-17T05:03:39;12.60;99.90
28837;DHT22;50669;50.982;11.022;2022-10-17T05:06:15;12.60;99.90
28837;DHT22;50669;50.982;11.022;2022-10-17T05:08:41;12.60;99.90
28837;DHT22;50669;50.982;11.022;2022-10-17T05:11:19;12.60;99.90
28837;DHT22;50669;50.982;11.022;2022-10-17T05:13:52;12.60;99.90
28837;DHT22;50669;50.982;11.022;2022-10-17T05:16:19;12.60;99.90
28837;DHT22;50669;50.982;11.022;2022-10-17T05:18:53;12.60;99.90
28837;DHT22;50669;50.982;11.022;2022-10-17T05:21:20;12.60;99.90
28837;DHT22;50669;50.982;11.022;2022-10-17T05:23:46;12.70;99.90
28837;DHT22;50669;50.982;11.022;2022-10-17T05:26:12;12.70;99.90
28837;DHT22;50669;50.982;11.022;2022-10-17T05:28:38;12.70;99.90
28837;DHT22;50669;50.982;11.022;2022-10-17T05:31:04;12.70;99.90
28837;DHT22;50669;50.982;11.022;2022-10-17T05:33:30;12.70;99.90
28837;DHT22;50669;50.982;11.022;2022-10-17T05:35:57;12.70;99.90
28837;DHT22;50669;50.982;11.022;2022-10-17T05:38:23;12.70;99.90
28837;DHT22;50669;50.982;11.022;2022-10-17T05:40:48;12.70;99.90
28837;DHT22;50669;50.982;11.022;2022-10-17T05:43:17;12.80;99.90
28837;DHT22;50669;50.982;11.022;2022-10-17T05:45:45;12.70;99.90
28837;DHT22;50669;50.982;11.022;2022-10-17T05:48:13;12.80;99.90
28837;DHT22;50669;50.982;11.022;2022-10-17T05:50:39;12.80;99.90
28837;DHT22;50669;50.982;11.022;2022-10-17T05:53:04;12.90;99.90
28837;DHT22;50669;50.982;11.022;2022-10-17T05:55:30;12.90;99.90
28837;DHT22;50669;50.982;11.022;2022-10-17T05:57:58;13.00;99.90
28837;DHT22;50669;50.982;11.022;2022-10-17T06:00:29;13.00;99.90
28837;DHT22;50669;50.982;11.022;2022-10-17T06:02:56;13.10;99.90
28837;DHT22;50669;50.982;11.022;2022-10-17T06:05:25;13.20;99.90
28837;DHT22;50669;50.982;11.022;2022-10-17T06:07:53;13.20;99.90
28837;DHT22;50669;50.982;11.022;2022-10-17T06:10:20;13.30;99.90
28837;DHT22;50669;50.982;11.022;2022-10-17T06:12:46;13.50;99.90
28837;DHT22;50669;50.982;11.022;2022-10-17T06:15:12;13.50;99.90
28837;DHT22;50669;50.982;11.022;2022-10-17T06:17:37;13.70;99.90
28837;DHT22;50669;50.982;11.022;2022-10-17T06:20:03;13.80;99.90
28837;DHT22;50669;50.982;11.022;2022-10-17T06:22:29;13.90;99.90
28837;DHT22;50669;50.982;11.022;2022-10-17T06:24:55;14.00;99.90
28837;DHT22;50669;50.982;11.022;2022-10-17T06:27:20;14.00;99.90
28837;DHT22;50669;50.982;11.022;2022-10-17T06:29:46;14.10;99.90
28837;DHT22;50669;50.982;11.022;2022-10-17T06:32:13;14.20;99.90
28837;DHT22;50669;50.982;11.022;2022-10-17T06:34:41;14.20;99.90
28837;DHT22;50669;50.982;11.022;2022-10-17T06:37:06;14.30;99.90
28837;DHT22;50669;50.982;11.022;2022-10-17T06:39:33;14.30;99.90
28837;DHT22;50669;50.982;11.022;2022-10-17T06:42:05;14.40;99.90
28837;DHT22;50669;50.982;11.022;2022-10-17T06:44:30;14.50;99.90
28837;DHT22;50669;50.982;11.022;2022-10-17T06:46:59;14.50;99.90
28837;DHT22;50669;50.982;11.022;2022-10-17T06:49:28;14.60;99.90
28837;DHT22;50669;50.982;11.022;2022-10-17T06:51:54;14.60;99.90
28837;DHT22;50669;50.982;11.022;2022-10-17T06:54:20;14.70;99.90
28837;DHT22;50669;50.982;11.022;2022-10-17T06:56:45;14.70;99.90
28837;DHT22;50669;50.982;11.022;2022-10-17T06:59:11;14.70;99.90
28837;DHT22;50669;50.982;11.022;2022-10-17T07:01:37;14.70;99.90
28837;DHT22;50669;50.982;11.022;2022-10-17T07:04:02;14.70;99.90
28837;DHT22;50669;50.982;11.022;2022-10-17T07:06:33;14.80;99.90
28837;DHT22;50669;50.982;11.022;2022-10-17T07:09:01;14.80;99.90
28837;DHT22;50669;50.982;11.022;2022-10-17T07:11:28;14.80;99.90
28837;DHT22;50669;50.982;11.022;2022-10-17T07:13:55;14.90;99.90
28837;DHT22;50669;50.982;11.022;2022-10-17T07:16:21;14.90;99.90
28837;DHT22;50669;50.982;11.022;2022-10-17T07:18:50;14.90;99.90
28837;DHT22;50669;50.982;11.022;2022-10-17T07:21:20;14.90;99.90
28837;DHT22;50669;50.982;11.022;2022-10-17T07:23:45;14.90;99.90
28837;DHT22;50669;50.982;11.022;2022-10-17T07:26:13;14.90;99.90
28837;DHT22;50669;50.982;11.022;2022-10-17T07:28:43;14.90;99.90
28837;DHT22;50669;50.982;11.022;2022-10-17T07:31:14;14.90;99.90
28837;DHT22;50669;50.982;11.022;2022-10-17T07:33:41;15.00;99.90
28837;DHT22;50669;50.982;11.022;2022-10-17T07:36:07;15.00;99.90
28837;DHT22;50669;50.982;11.022;2022-10-17T07:38:36;15.00;99.90
28837;DHT22;50669;50.982;11.022;2022-10-17T07:41:04;15.10;99.90
28837;DHT22;50669;50.982;11.022;2022-10-17T07:43:33;15.20;99.90
28837;DHT22;50669;50.982;11.022;2022-10-17T07:46:01;15.20;99.90
28837;DHT22;50669;50.982;11.022;2022-10-17T07:48:30;15.30;99.90
28837;DHT22;50669;50.982;11.022;2022-10-17T07:50:56;15.30;99.90
28837;DHT22;50669;50.982;11.022;2022-10-17T07:53:21;15.50;99.90
28837;DHT22;50669;50.982;11.022;2022-10-17T07:55:47;15.50;99.90
28837;DHT22;50669;50.982;11.022;2022-10-17T07:58:14;15.60;99.90
28837;DHT22;50669;50.982;11.022;2022-10-17T08:00:39;15.70;99.90
28837;DHT22;50669;50.982;11.022;2022-10-17T08:03:05;15.80;99.90
28837;DHT22;50669;50.982;11.022;2022-10-17T08:05:32;15.90;99.90
28837;DHT22;50669;50.982;11.022;2022-10-17T08:08:00;16.10;99.90
28837;DHT22;50669;50.982;11.022;2022-10-17T08:10:25;16.20;99.90
28837;DHT22;50669;50.982;11.022;2022-10-17T08:12:54;16.20;99.90
28837;DHT22;50669;50.982;11.022;2022-10-17T08:15:21;16.30;99.90
28837;DHT22;50669;50.982;11.022;2022-10-17T08:17:52;16.30;99.90
28837;DHT22;50669;50.982;11.022;2022-10-17T08:20:20;16.40;99.90
28837;DHT22;50669;50.982;11.022;2022-10-17T08:22:54;16.40;99.90
28837;DHT22;50669;50.982;11.022;2022-10-17T08:25:22;16.50;99.90
28837;DHT22;50669;50.982;11.022;2022-10-17T08:27:48;16.60;99.90
28837;DHT22;50669;50.982;11.022;2022-10-17T08:30:14;16.70;99.90
28837;DHT22;50669;50.982;11.022;2022-10-17T08:32:40;16.80;99.90
28837;DHT22;50669;50.982;11.022;2022-10-17T08:35:06;17.00;99.90
28837;DHT22;50669;50.982;11.022;2022-10-17T08:37:32;17.20;99.90
28837;DHT22;50669;50.982;11.022;2022-10-17T08:39:57;17.30;99.90
28837;DHT22;50669;50.982;11.022;2022-10-17T08:45:33;17.60;99.90
28837;DHT22;50669;50.982;11.022;2022-10-17T08:48:03;17.80;99.90
28837;DHT22;50669;50.982;11.022;2022-10-17T08:53:34;18.00;99.90
28837;DHT22;50669;50.982;11.022;2022-10-17T08:58:46;18.30;99.90
28837;DHT22;50669;50.982;11.022;2022-10-17T09:01:50;18.40;99.90
28837;DHT22;50669;50.982;11.022;2022-10-17T09:04:39;18.60;99.90
28837;DHT22;50669;50.982;11.022;2022-10-17T09:07:48;18.70;99.90
28837;DHT22;50669;50.982;11.022;2022-10-17T09:13:23;19.00;99.90
28837;DHT22;50669;50.982;11.022;2022-10-17T09:16:13;19.10;99.90
28837;DHT22;50669;50.982;11.022;2022-10-17T09:24:19;19.60;99.90
28837;DHT22;50669;50.982;11.022;2022-10-17T09:26:50;19.70;99.90
28837;DHT22;50669;50.982;11.022;2022-10-17T09:29:21;20.00;99.90
28837;DHT22;50669;50.982;11.022;2022-10-17T09:32:13;20.20;99.90
28837;DHT22;50669;50.982;11.022;2022-10-17T09:34:41;20.50;99.90
28837;DHT22;50669;50.982;11.022;2022-10-17T09:37:14;20.70;99.90
28837;DHT22;50669;50.982;11.022;2022-10-17T09:39:41;20.80;99.90
28837;DHT22;50669;50.982;11.022;2022-10-17T09:42:12;21.00;99.90
28837;DHT22;50669;50.982;11.022;2022-10-17T09:49:48;21.40;99.90
28837;DHT22;50669;50.982;11.022;2022-10-17T09:52:28;21.60;99.90
28837;DHT22;50669;50.982;11.022;2022-10-17T09:55:17;21.70;99.90
28837;DHT22;50669;50.982;11.022;2022-10-17T09:57:57;21.90;99.90
28837;DHT22;50669;50.982;11.022;2022-10-17T10:00:27;22.00;99.90
28837;DHT22;50669;50.982;11.022;2022-10-17T10:05:38;22.20;99.90
28837;DHT22;50669;50.982;11.022;2022-10-17T10:08:15;22.30;99.90
28837;DHT22;50669;50.982;11.022;2022-10-17T10:10:42;22.40;99.90
28837;DHT22;50669;50.982;11.022;2022-10-17T10:15:44;22.80;99.90
28837;DHT22;50669;50.982;11.022;2022-10-17T10:18:32;22.90;99.90
28837;DHT22;50669;50.982;11.022;2022-10-17T10:21:07;23.10;99.90
28837;DHT22;50669;50.982;11.022;2022-10-17T10:23:33;23.20;99.90
28837;DHT22;50669;50.982;11.022;2022-10-17T10:26:21;23.40;99.90
28837;DHT22;50669;50.982;11.022;2022-10-17T10:29:00;24.00;99.90
28837;DHT22;50669;50.982;11.022;2022-10-17T10:31:37;25.40;99.90
28837;DHT22;50669;50.982;11.022;2022-10-17T10:34:26;26.60;99.90
28837;DHT22;50669;50.982;11.022;2022-10-17T10:37:05;27.70;98.60
28837;DHT22;50669;50.982;11.022;2022-10-17T10:39:54;28.70;97.80
28837;DHT22;50669;50.982;11.022;2022-10-17T10:42:36;29.60;95.10
28837;DHT22;50669;50.982;11.022;2022-10-17T10:48:00;30.60;89.10
28837;DHT22;50669;50.982;11.022;2022-10-17T10:50:34;30.00;89.70
28837;DHT22;50669;50.982;11.022;2022-10-17T10:55:58;30.30;83.40
28837;DHT22;50669;50.982;11.022;2022-10-17T11:01:04;29.70;84.00
28837;DHT22;50669;50.982;11.022;2022-10-17T11:03:36;29.40;84.50
28837;DHT22;50669;50.982;11.022;2022-10-17T11:06:16;29.20;86.40
28837;DHT22;50669;50.982;11.022;2022-10-17T11:11:24;28.50;87.20
28837;DHT22;50669;50.982;11.022;2022-10-17T11:14:02;28.20;85.70
28837;DHT22;50669;50.982;11.022;2022-10-17T11:16:43;28.00;86.10
28837;DHT22;50669;50.982;11.022;2022-10-17T11:19:34;27.80;86.60
28837;DHT22;50669;50.982;11.022;2022-10-17T11:22:27;27.90;86.40
28837;DHT22;50669;50.982;11.022;2022-10-17T11:27:29;28.50;86.00
28837;DHT22;50669;50.982;11.022;2022-10-17T11:29:56;28.80;85.10
28837;DHT22;50669;50.982;11.022;2022-10-17T11:32:32;29.20;84.70
28837;DHT22;50669;50.982;11.022;2022-10-17T11:35:24;29.60;81.70
28837;DHT22;50669;50.982;11.022;2022-10-17T11:40:32;29.20;79.20
28837;DHT22;50669;50.982;11.022;2022-10-17T11:43:07;28.70;78.20
28837;DHT22;50669;50.982;11.022;2022-10-17T11:45:40;28.40;80.50
28837;DHT22;50669;50.982;11.022;2022-10-17T11:48:14;28.30;81.40
28837;DHT22;50669;50.982;11.022;2022-10-17T11:50:45;28.30;80.70
28837;DHT22;50669;50.982;11.022;2022-10-17T11:53:17;28.80;79.30
28837;DHT22;50669;50.982;11.022;2022-10-17T11:55:44;28.90;77.90
28837;DHT22;50669;50.982;11.022;2022-10-17T12:03:31;31.00;71.40
28837;DHT22;50669;50.982;11.022;2022-10-17T12:11:32;33.30;66.30
28837;DHT22;50669;50.982;11.022;2022-10-17T12:14:34;34.40;62.20
28837;DHT22;50669;50.982;11.022;2022-10-17T12:17:01;34.60;58.60
28837;DHT22;50669;50.982;11.022;2022-10-17T12:19:32;33.90;58.10
28837;DHT22;50669;50.982;11.022;2022-10-17T12:24:41;33.10;59.80
28837;DHT22;50669;50.982;11.022;2022-10-17T12:27:39;33.70;58.60
28837;DHT22;50669;50.982;11.022;2022-10-17T12:32:37;34.70;56.80
28837;DHT22;50669;50.982;11.022;2022-10-17T12:35:03;34.70;56.50
28837;DHT22;50669;50.982;11.022;2022-10-17T12:51:02;31.20;60.20
28837;DHT22;50669;50.982;11.022;2022-10-17T12:56:03;29.70;64.20
28837;DHT22;50669;50.982;11.022;2022-10-17T12:58:29;29.30;65.60
28837;DHT22;50669;50.982;11.022;2022-10-17T13:00:58;28.80;66.60
28837;DHT22;50669;50.982;11.022;2022-10-17T13:03:31;28.60;68.50
28837;DHT22;50669;50.982;11.022;2022-10-17T13:06:00;28.50;68.20
28837;DHT22;50669;50.982;11.022;2022-10-17T13:10:57;27.80;70.50
28837;DHT22;50669;50.982;11.022;2022-10-17T13:16:01;27.80;70.80
28837;DHT22;50669;50.982;11.022;2022-10-17T13:18:28;27.80;70.30
28837;DHT22;50669;50.982;11.022;2022-10-17T13:21:02;27.60;71.70
28837;DHT22;50669;50.982;11.022;2022-10-17T13:23:36;27.60;71.90
28837;DHT22;50669;50.982;11.022;2022-10-17T13:28:33;27.80;72.00
28837;DHT22;50669;50.982;11.022;2022-10-17T13:30:59;27.80;72.20
28837;DHT22;50669;50.982;11.022;2022-10-17T13:36:02;27.90;72.20
28837;DHT22;50669;50.982;11.022;2022-10-17T13:38:30;27.50;70.50
28837;DHT22;50669;50.982;11.022;2022-10-17T13:41:00;27.00;72.90
28837;DHT22;50669;50.982;11.022;2022-10-17T13:43:29;26.80;73.60
28837;DHT22;50669;50.982;11.022;2022-10-17T13:46:00;26.60;74.50
28837;DHT22;50669;50.982;11.022;2022-10-17T13:48:29;26.40;74.40
28837;DHT22;50669;50.982;11.022;2022-10-17T13:50:58;26.20;75.00
28837;DHT22;50669;50.982;11.022;2022-10-17T13:58:38;25.90;76.90
28837;DHT22;50669;50.982;11.022;2022-10-17T14:01:05;25.70;77.00
28837;DHT22;50669;50.982;11.022;2022-10-17T14:03:33;25.60;77.40
28837;DHT22;50669;50.982;11.022;2022-10-17T14:06:18;25.50;77.70
28837;DHT22;50669;50.982;11.022;2022-10-17T14:09:01;25.40;76.30
28837;DHT22;50669;50.982;11.022;2022-10-17T14:11:41;25.40;76.50
28837;DHT22;50669;50.982;11.022;2022-10-17T14:14:36;25.30;77.00
28837;DHT22;50669;50.982;11.022;2022-10-17T14:17:23;25.30;76.80
28837;DHT22;50669;50.982;11.022;2022-10-17T14:19:58;25.30;77.40
28837;DHT22;50669;50.982;11.022;2022-10-17T14:22:28;25.30;78.10
28837;DHT22;50669;50.982;11.022;2022-10-17T14:24:55;25.20;75.90
28837;DHT22;50669;50.982;11.022;2022-10-17T14:27:35;25.20;76.90
28837;DHT22;50669;50.982;11.022;2022-10-17T14:30:52;25.20;77.40
28837;DHT22;50669;50.982;11.022;2022-10-17T14:32:56;25.10;78.20
28837;DHT22;50669;50.982;11.022;2022-10-17T14:35:24;25.10;78.60
28837;DHT22;50669;50.982;11.022;2022-10-17T14:37:51;25.10;79.10
28837;DHT22;50669;50.982;11.022;2022-10-17T14:40:20;25.00;79.60
28837;DHT22;50669;50.982;11.022;2022-10-17T14:42:49;25.00;79.50
28837;DHT22;50669;50.982;11.022;2022-10-17T14:45:38;24.90;80.10
28837;DHT22;50669;50.982;11.022;2022-10-17T14:50:36;24.90;81.10
28837;DHT22;50669;50.982;11.022;2022-10-17T14:53:03;24.80;81.20
28837;DHT22;50669;50.982;11.022;2022-10-17T14:55:31;24.80;81.70
28837;DHT22;50669;50.982;11.022;2022-10-17T14:57:57;24.70;82.10
28837;DHT22;50669;50.982;11.022;2022-10-17T15:00:24;24.60;82.60
28837;DHT22;50669;50.982;11.022;2022-10-17T15:02:51;24.60;82.90
28837;DHT22;50669;50.982;11.022;2022-10-17T15:05:17;24.50;83.40
28837;DHT22;50669;50.982;11.022;2022-10-17T15:07:44;24.40;83.80
28837;DHT22;50669;50.982;11.022;2022-10-17T15:10:31;24.30;83.90
28837;DHT22;50669;50.982;11.022;2022-10-17T15:12:58;24.30;84.20
28837;DHT22;50669;50.982;11.022;2022-10-17T15:15:26;24.20;84.60
28837;DHT22;50669;50.982;11.022;2022-10-17T15:17:52;24.10;85.00
28837;DHT22;50669;50.982;11.022;2022-10-17T15:20:17;24.10;85.10
28837;DHT22;50669;50.982;11.022;2022-10-17T15:22:44;24.10;85.00
28837;DHT22;50669;50.982;11.022;2022-10-17T15:25:10;24.00;85.60
28837;DHT22;50669;50.982;11.022;2022-10-17T15:27:40;24.00;84.90
28837;DHT22;50669;50.982;11.022;2022-10-17T15:32:42;23.90;84.70
28837;DHT22;50669;50.982;11.022;2022-10-17T15:35:10;23.90;84.90
28837;DHT22;50669;50.982;11.022;2022-10-17T15:37:36;23.80;84.60
28837;DHT22;50669;50.982;11.022;2022-10-17T15:40:04;23.80;84.20
28837;DHT22;50669;50.982;11.022;2022-10-17T15:42:30;23.80;84.10
28837;DHT22;50669;50.982;11.022;2022-10-17T15:44:58;23.70;83.90
28837;DHT22;50669;50.982;11.022;2022-10-17T15:47:29;23.70;84.40
28837;DHT22;50669;50.982;11.022;2022-10-17T15:49:58;23.70;85.30
28837;DHT22;50669;50.982;11.022;2022-10-17T15:52:26;23.60;86.00
28837;DHT22;50669;50.982;11.022;2022-10-17T15:54:55;23.50;86.70
28837;DHT22;50669;50.982;11.022;2022-10-17T15:57:33;23.40;86.80
28837;DHT22;50669;50.982;11.022;2022-10-17T16:00:00;23.30;86.90
28837;DHT22;50669;50.982;11.022;2022-10-17T16:02:28;23.30;86.90
28837;DHT22;50669;50.982;11.022;2022-10-17T16:04:54;23.20;87.40
28837;DHT22;50669;50.982;11.022;2022-10-17T16:07:20;23.20;87.80
28837;DHT22;50669;50.982;11.022;2022-10-17T16:09:46;23.10;88.20
28837;DHT22;50669;50.982;11.022;2022-10-17T16:12:17;23.00;88.60
28837;DHT22;50669;50.982;11.022;2022-10-17T16:14:42;23.00;88.90
28837;DHT22;50669;50.982;11.022;2022-10-17T16:17:16;22.90;89.30
28837;DHT22;50669;50.982;11.022;2022-10-17T16:19:42;22.80;89.70
28837;DHT22;50669;50.982;11.022;2022-10-17T16:22:19;22.70;90.20
28837;DHT22;50669;50.982;11.022;2022-10-17T16:24:45;22.60;90.40
28837;DHT22;50669;50.982;11.022;2022-10-17T16:27:11;22.40;90.60
28837;DHT22;50669;50.982;11.022;2022-10-17T16:29:36;22.40;90.80
28837;DHT22;50669;50.982;11.022;2022-10-17T16:32:02;22.30;91.00
28837;DHT22;50669;50.982;11.022;2022-10-17T16:34:27;22.30;91.20
28837;DHT22;50669;50.982;11.022;2022-10-17T16:36:55;22.20;91.30
28837;DHT22;50669;50.982;11.022;2022-10-17T16:39:20;22.20;91.50
28837;DHT22;50669;50.982;11.022;2022-10-17T16:41:48;22.10;91.70
28837;DHT22;50669;50.982;11.022;2022-10-17T16:44:16;22.00;92.00
28837;DHT22;50669;50.982;11.022;2022-10-17T16:46:42;21.90;92.20
28837;DHT22;50669;50.982;11.022;2022-10-17T16:49:10;21.90;92.70
28837;DHT22;50669;50.982;11.022;2022-10-17T16:51:39;21.90;92.50
28837;DHT22;50669;50.982;11.022;2022-10-17T16:54:05;21.80;92.70
28837;DHT22;50669;50.982;11.022;2022-10-17T16:56:32;21.70;92.80
28837;DHT22;50669;50.982;11.022;2022-10-17T16:58:59;21.70;93.00
28837;DHT22;50669;50.982;11.022;2022-10-17T17:01:28;21.80;93.10
28837;DHT22;50669;50.982;11.022;2022-10-17T17:03:54;21.80;93.30
28837;DHT22;50669;50.982;11.022;2022-10-17T17:06:27;21.80;93.30
28837;DHT22;50669;50.982;11.022;2022-10-17T17:08:55;21.80;93.50
28837;DHT22;50669;50.982;11.022;2022-10-17T17:11:23;21.60;93.60
28837;DHT22;50669;50.982;11.022;2022-10-17T17:13:49;21.60;93.70
28837;DHT22;50669;50.982;11.022;2022-10-17T17:16:22;21.50;94.00
28837;DHT22;50669;50.982;11.022;2022-10-17T17:18:48;21.50;94.40
28837;DHT22;50669;50.982;11.022;2022-10-17T17:21:17;21.30;94.50
28837;DHT22;50669;50.982;11.022;2022-10-17T17:23:43;21.30;94.70
28837;DHT22;50669;50.982;11.022;2022-10-17T17:26:17;21.30;94.90
28837;DHT22;50669;50.982;11.022;2022-10-17T17:28:44;21.20;95.10
28837;DHT22;50669;50.982;11.022;2022-10-17T17:31:14;21.20;95.30
28837;DHT22;50669;50.982;11.022;2022-10-17T17:33:41;21.10;95.50
28837;DHT22;50669;50.982;11.022;2022-10-17T17:36:09;21.00;95.70
28837;DHT22;50669;50.982;11.022;2022-10-17T17:38:37;21.00;95.90